sensor_id;sensor_type;location;lat;lon;timestamp;pressure;altitude;pressure_sealevel;temperature;humidity
75072;BME280;63651;55.728;38.022;2023-12-04T00:02:55;98159.75;;;14.36;nan
75072;BME280;63651;55.728;38.022;2023-12-04T00:07:56;98158.97;;;14.41;nan
75072;BME280;63651;55.728;38.022;2023-12-04T00:12:57;98165.78;;;14.38;nan
75072;BME280;63651;55.728;38.022;2023-12-04T00:17:59;98162.13;;;14.28;nan
75072;BME280;63651;55.728;38.022;2023-12-04T00:23:00;98173.03;;;14.23;nan
75072;BME280;63651;55.728;38.022;2023-12-04T00:28:01;98185.25;;;14.15;nan
75072;BME280;63651;55.728;38.022;2023-12-04T00:33:02;98186.34;;;14.14;nan
75072;BME280;63651;55.728;38.022;2023-12-04T00:38:03;98195.84;;;14.06;nan
75072;BME280;63651;55.728;38.022;2023-12-04T00:43:04;98208.97;;;14.09;nan
75072;BME280;63651;55.728;38.022;2023-12-04T00:48:05;98201.31;;;14.06;nan
75072;BME280;63651;55.728;38.022;2023-12-04T00:53:06;98218.53;;;14.12;nan
75072;BME280;63651;55.728;38.022;2023-12-04T00:58:07;98231.06;;;14.08;nan
75072;BME280;63651;55.728;38.022;2023-12-04T01:03:08;98223.44;;;14.10;nan
75072;BME280;63651;55.728;38.022;2023-12-04T01:08:10;98235.16;;;14.05;nan
75072;BME280;63651;55.728;38.022;2023-12-04T01:13:11;98232.94;;;14.02;nan
75072;BME280;63651;55.728;38.022;2023-12-04T01:18:12;98238.91;;;13.99;nan
75072;BME280;63651;55.728;38.022;2023-12-04T01:23:13;98246.81;;;13.96;nan
75072;BME280;63651;55.728;38.022;2023-12-04T01:28:14;98251.75;;;13.99;nan
75072;BME280;63651;55.728;38.022;2023-12-04T01:33:15;98270.34;;;14.02;nan
75072;BME280;63651;55.728;38.022;2023-12-04T01:38:16;98274.09;;;13.96;nan
75072;BME280;63651;55.728;38.022;2023-12-04T01:43:17;98274.47;;;14.04;nan
75072;BME280;63651;55.728;38.022;2023-12-04T01:48:19;98275.81;;;14.02;nan
75072;BME280;63651;55.728;38.022;2023-12-04T01:53:20;98273.63;;;14.04;nan
75072;BME280;63651;55.728;38.022;2023-12-04T01:58:22;98266.47;;;13.98;nan
75072;BME280;63651;55.728;38.022;2023-12-04T02:03:23;98277.75;;;14.06;nan
75072;BME280;63651;55.728;38.022;2023-12-04T02:08:25;98289.72;;;14.00;nan
75072;BME280;63651;55.728;38.022;2023-12-04T02:13:26;98284.25;;;14.00;nan
75072;BME280;63651;55.728;38.022;2023-12-04T02:18:28;98293.47;;;13.94;nan
75072;BME280;63651;55.728;38.022;2023-12-04T02:23:30;98301.91;;;13.93;nan
75072;BME280;63651;55.728;38.022;2023-12-04T02:28:33;98284.34;;;13.84;nan
75072;BME280;63651;55.728;38.022;2023-12-04T02:33:37;98306.25;;;13.89;nan
75072;BME280;63651;55.728;38.022;2023-12-04T02:38:39;98298.31;;;13.87;nan
75072;BME280;63651;55.728;38.022;2023-12-04T02:43:41;98314.28;;;13.73;nan
75072;BME280;63651;55.728;38.022;2023-12-04T02:48:42;98319.16;;;13.71;nan
75072;BME280;63651;55.728;38.022;2023-12-04T02:53:43;98324.63;;;13.71;nan
75072;BME280;63651;55.728;38.022;2023-12-04T02:58:44;98322.34;;;13.63;nan
75072;BME280;63651;55.728;38.022;2023-12-04T03:03:45;98317.91;;;13.57;nan
75072;BME280;63651;55.728;38.022;2023-12-04T03:08:46;98330.09;;;13.50;nan
75072;BME280;63651;55.728;38.022;2023-12-04T03:13:47;98338.34;;;13.55;nan
75072;BME280;63651;55.728;38.022;2023-12-04T03:18:48;98350.22;;;13.43;nan
75072;BME280;63651;55.728;38.022;2023-12-04T03:23:49;98369.56;;;13.42;nan
75072;BME280;63651;55.728;38.022;2023-12-04T03:28:50;98389.16;;;13.39;nan
75072;BME280;63651;55.728;38.022;2023-12-04T03:33:51;98395.63;;;13.55;nan
75072;BME280;63651;55.728;38.022;2023-12-04T03:38:52;98406.56;;;13.55;nan
75072;BME280;63651;55.728;38.022;2023-12-04T03:43:54;98421.19;;;13.49;nan
75072;BME280;63651;55.728;38.022;2023-12-04T03:48:55;98443.53;;;13.45;nan
75072;BME280;63651;55.728;38.022;2023-12-04T03:53:56;98442.13;;;13.43;nan
75072;BME280;63651;55.728;38.022;2023-12-04T03:58:57;98450.97;;;13.50;nan
75072;BME280;63651;55.728;38.022;2023-12-04T04:03:58;98459.66;;;13.47;nan
75072;BME280;63651;55.728;38.022;2023-12-04T04:08:59;98475.50;;;13.50;nan
75072;BME280;63651;55.728;38.022;2023-12-04T04:14:01;98473.22;;;13.42;nan
75072;BME280;63651;55.728;38.022;2023-12-04T04:19:02;98498.75;;;13.53;nan
75072;BME280;63651;55.728;38.022;2023-12-04T04:24:03;98502.97;;;13.43;nan
75072;BME280;63651;55.728;38.022;2023-12-04T04:29:05;98496.59;;;13.55;nan
75072;BME280;63651;55.728;38.022;2023-12-04T04:34:06;98511.72;;;13.45;nan
75072;BME280;63651;55.728;38.022;2023-12-04T04:39:07;98522.88;;;13.44;nan
75072;BME280;63651;55.728;38.022;2023-12-04T04:44:08;98524.13;;;13.36;nan
75072;BME280;63651;55.728;38.022;2023-12-04T04:49:09;98542.22;;;13.42;nan
75072;BME280;63651;55.728;38.022;2023-12-04T04:54:10;98535.22;;;13.47;nan
75072;BME280;63651;55.728;38.022;2023-12-04T04:59:11;98548.34;;;13.33;nan
75072;BME280;63651;55.728;38.022;2023-12-04T05:04:12;98553.56;;;13.34;nan
75072;BME280;63651;55.728;38.022;2023-12-04T05:09:13;98557.78;;;13.25;nan
75072;BME280;63651;55.728;38.022;2023-12-04T05:14:14;98574.78;;;15.14;nan
75072;BME280;63651;55.728;38.022;2023-12-04T05:19:15;98574.47;;;16.06;nan
75072;BME280;63651;55.728;38.022;2023-12-04T05:24:16;98575.72;;;15.24;nan
75072;BME280;63651;55.728;38.022;2023-12-04T05:29:17;98583.91;;;14.70;nan
75072;BME280;63651;55.728;38.022;2023-12-04T05:34:19;98592.22;;;14.37;nan
75072;BME280;63651;55.728;38.022;2023-12-04T05:39:20;98597.38;;;14.77;nan
75072;BME280;63651;55.728;38.022;2023-12-04T05:44:21;98610.34;;;14.87;nan
75072;BME280;63651;55.728;38.022;2023-12-04T05:49:22;98618.09;;;14.95;nan
75072;BME280;63651;55.728;38.022;2023-12-04T05:54:23;98617.88;;;15.01;nan
75072;BME280;63651;55.728;38.022;2023-12-04T05:59:24;98632.44;;;15.07;nan
75072;BME280;63651;55.728;38.022;2023-12-04T06:04:25;98630.38;;;15.19;nan
75072;BME280;63651;55.728;38.022;2023-12-04T06:09:26;98640.56;;;15.24;nan
75072;BME280;63651;55.728;38.022;2023-12-04T06:14:27;98660.00;;;15.27;nan
75072;BME280;63651;55.728;38.022;2023-12-04T06:19:28;98658.97;;;15.33;nan
75072;BME280;63651;55.728;38.022;2023-12-04T06:24:30;98666.22;;;15.45;nan
75072;BME280;63651;55.728;38.022;2023-12-04T06:29:32;98673.69;;;15.54;nan
75072;BME280;63651;55.728;38.022;2023-12-04T06:34:34;98678.78;;;16.79;nan
75072;BME280;63651;55.728;38.022;2023-12-04T07:14:43;98733.84;;;16.30;nan
75072;BME280;63651;55.728;38.022;2023-12-04T07:19:44;98743.19;;;16.02;nan
75072;BME280;63651;55.728;38.022;2023-12-04T07:24:45;98753.25;;;15.91;nan
75072;BME280;63651;55.728;38.022;2023-12-04T07:29:46;98756.50;;;15.61;nan
75072;BME280;63651;55.728;38.022;2023-12-04T07:34:48;98768.97;;;16.70;nan
75072;BME280;63651;55.728;38.022;2023-12-04T09:50:16;98890.00;;;16.25;nan
75072;BME280;63651;55.728;38.022;2023-12-04T09:55:18;98920.97;;;16.25;nan
75072;BME280;63651;55.728;38.022;2023-12-04T10:00:20;98913.84;;;16.24;nan
75072;BME280;63651;55.728;38.022;2023-12-04T10:05:22;98932.09;;;16.14;nan
75072;BME280;63651;55.728;38.022;2023-12-04T10:10:24;98935.78;;;15.81;nan
75072;BME280;63651;55.728;38.022;2023-12-04T10:15:25;98941.47;;;15.74;nan
75072;BME280;63651;55.728;38.022;2023-12-04T10:20:26;98953.00;;;15.59;nan
75072;BME280;63651;55.728;38.022;2023-12-04T10:25:30;98956.56;;;15.60;nan
75072;BME280;63651;55.728;38.022;2023-12-04T10:30:31;98969.09;;;15.39;nan
75072;BME280;63651;55.728;38.022;2023-12-04T10:35:33;98986.28;;;15.34;nan
75072;BME280;63651;55.728;38.022;2023-12-04T10:40:37;98985.03;;;15.25;nan
75072;BME280;63651;55.728;38.022;2023-12-04T10:45:40;98992.50;;;15.13;nan
75072;BME280;63651;55.728;38.022;2023-12-04T10:50:43;99011.06;;;14.94;nan
75072;BME280;63651;55.728;38.022;2023-12-04T10:55:44;99001.13;;;14.88;nan
75072;BME280;63651;55.728;38.022;2023-12-04T11:00:48;98982.19;;;14.70;nan
75072;BME280;63651;55.728;38.022;2023-12-04T11:05:55;99018.91;;;14.74;nan
75072;BME280;63651;55.728;38.022;2023-12-04T11:10:59;99016.84;;;14.81;nan
75072;BME280;63651;55.728;38.022;2023-12-04T11:16:12;98979.56;;;14.75;nan
75072;BME280;63651;55.728;38.022;2023-12-04T11:21:16;99013.09;;;14.70;nan
75072;BME280;63651;55.728;38.022;2023-12-04T11:26:20;99027.97;;;14.23;nan
75072;BME280;63651;55.728;38.022;2023-12-04T11:31:21;99044.25;;;14.18;nan
75072;BME280;63651;55.728;38.022;2023-12-04T11:36:23;99046.53;;;14.09;nan
75072;BME280;63651;55.728;38.022;2023-12-04T11:41:25;99044.75;;;14.03;nan
75072;BME280;63651;55.728;38.022;2023-12-04T11:46:28;99027.72;;;13.61;nan
75072;BME280;63651;55.728;38.022;2023-12-04T12:02:17;99070.91;;;13.75;nan
75072;BME280;63651;55.728;38.022;2023-12-04T12:07:19;99082.41;;;13.89;nan
75072;BME280;63651;55.728;38.022;2023-12-04T12:12:20;99092.38;;;13.72;nan
75072;BME280;63651;55.728;38.022;2023-12-04T12:17:21;99097.72;;;13.67;nan
75072;BME280;63651;55.728;38.022;2023-12-04T12:22:22;99084.78;;;13.62;nan
75072;BME280;63651;55.728;38.022;2023-12-04T12:27:25;99068.88;;;13.71;nan
75072;BME280;63651;55.728;38.022;2023-12-04T12:32:26;99115.16;;;13.54;nan
75072;BME280;63651;55.728;38.022;2023-12-04T12:37:28;99120.72;;;13.59;nan
75072;BME280;63651;55.728;38.022;2023-12-04T12:42:29;99106.38;;;13.52;nan
75072;BME280;63651;55.728;38.022;2023-12-04T12:47:30;99101.75;;;13.53;nan
75072;BME280;63651;55.728;38.022;2023-12-04T12:52:33;99108.03;;;13.65;nan
75072;BME280;63651;55.728;38.022;2023-12-04T12:57:34;99106.59;;;13.51;nan
75072;BME280;63651;55.728;38.022;2023-12-04T13:02:36;99131.25;;;13.44;nan
75072;BME280;63651;55.728;38.022;2023-12-04T13:07:38;99136.34;;;13.40;nan
75072;BME280;63651;55.728;38.022;2023-12-04T13:12:39;99131.41;;;13.49;nan
75072;BME280;63651;55.728;38.022;2023-12-04T13:17:41;99138.63;;;13.55;nan
75072;BME280;63651;55.728;38.022;2023-12-04T13:22:42;99151.44;;;13.43;nan
75072;BME280;63651;55.728;38.022;2023-12-04T13:27:43;99142.16;;;13.32;nan
75072;BME280;63651;55.728;38.022;2023-12-04T13:32:44;99142.78;;;13.16;nan
75072;BME280;63651;55.728;38.022;2023-12-04T13:37:45;99156.72;;;13.26;nan
75072;BME280;63651;55.728;38.022;2023-12-04T13:42:47;99155.22;;;13.42;nan
75072;BME280;63651;55.728;38.022;2023-12-04T13:48:07;99171.28;;;13.20;nan
75072;BME280;63651;55.728;38.022;2023-12-04T13:53:08;99167.25;;;13.23;nan
75072;BME280;63651;55.728;38.022;2023-12-04T13:58:09;99174.69;;;13.16;nan
75072;BME280;63651;55.728;38.022;2023-12-04T14:03:11;99180.59;;;13.12;nan
75072;BME280;63651;55.728;38.022;2023-12-04T14:08:13;99184.69;;;13.22;nan
75072;BME280;63651;55.728;38.022;2023-12-04T14:13:14;99179.97;;;13.29;nan
75072;BME280;63651;55.728;38.022;2023-12-04T14:18:16;99194.84;;;13.14;nan
75072;BME280;63651;55.728;38.022;2023-12-04T14:23:17;99200.22;;;13.21;nan
75072;BME280;63651;55.728;38.022;2023-12-04T14:28:19;99190.91;;;13.10;nan
75072;BME280;63651;55.728;38.022;2023-12-04T14:33:21;99189.31;;;13.03;nan
75072;BME280;63651;55.728;38.022;2023-12-04T14:38:22;99203.00;;;13.14;nan
75072;BME280;63651;55.728;38.022;2023-12-04T14:43:23;99202.72;;;13.23;nan
75072;BME280;63651;55.728;38.022;2023-12-04T14:48:25;99209.38;;;13.08;nan
75072;BME280;63651;55.728;38.022;2023-12-04T14:53:26;99218.31;;;13.16;nan
75072;BME280;63651;55.728;38.022;2023-12-04T14:58:27;99216.97;;;13.25;nan
75072;BME280;63651;55.728;38.022;2023-12-04T15:03:46;99218.31;;;13.16;nan
75072;BME280;63651;55.728;38.022;2023-12-04T15:08:59;99229.41;;;13.21;nan
75072;BME280;63651;55.728;38.022;2023-12-04T15:14:38;99234.69;;;13.16;nan
75072;BME280;63651;55.728;38.022;2023-12-04T15:20:18;99241.75;;;13.23;nan
75072;BME280;63651;55.728;38.022;2023-12-04T15:25:33;99245.75;;;13.21;nan
75072;BME280;63651;55.728;38.022;2023-12-04T15:30:34;99244.09;;;13.20;nan
75072;BME280;63651;55.728;38.022;2023-12-04T15:35:35;99245.81;;;13.32;nan
75072;BME280;63651;55.728;38.022;2023-12-04T15:40:38;99245.34;;;13.35;nan
75072;BME280;63651;55.728;38.022;2023-12-04T15:45:39;99258.53;;;13.38;nan
75072;BME280;63651;55.728;38.022;2023-12-04T15:50:40;99266.47;;;13.40;nan
75072;BME280;63651;55.728;38.022;2023-12-04T15:55:43;99275.03;;;13.43;nan
75072;BME280;63651;55.728;38.022;2023-12-04T16:00:44;99275.03;;;13.43;nan
75072;BME280;63651;55.728;38.022;2023-12-04T16:05:45;99269.81;;;13.42;nan
75072;BME280;63651;55.728;38.022;2023-12-04T16:10:46;99209.75;;;13.12;nan
75072;BME280;63651;55.728;38.022;2023-12-04T16:15:47;99269.50;;;13.50;nan
75072;BME280;63651;55.728;38.022;2023-12-04T16:20:49;99274.56;;;13.47;nan
75072;BME280;63651;55.728;38.022;2023-12-04T16:25:50;99289.88;;;13.48;nan
75072;BME280;63651;55.728;38.022;2023-12-04T16:30:53;99295.94;;;13.50;nan
75072;BME280;63651;55.728;38.022;2023-12-04T16:35:56;99289.09;;;13.59;nan
75072;BME280;63651;55.728;38.022;2023-12-04T16:40:58;99297.06;;;13.60;nan
75072;BME280;63651;55.728;38.022;2023-12-04T16:45:59;99295.84;;;13.56;nan
75072;BME280;63651;55.728;38.022;2023-12-04T16:51:02;99299.66;;;13.55;nan
75072;BME280;63651;55.728;38.022;2023-12-04T16:56:10;99304.88;;;13.57;nan
75072;BME280;63651;55.728;38.022;2023-12-04T17:01:12;99317.69;;;13.56;nan
75072;BME280;63651;55.728;38.022;2023-12-04T17:06:13;99316.25;;;13.54;nan
75072;BME280;63651;55.728;38.022;2023-12-04T17:11:14;99316.56;;;13.45;nan
75072;BME280;63651;55.728;38.022;2023-12-04T17:16:15;99325.28;;;13.54;nan
75072;BME280;63651;55.728;38.022;2023-12-04T17:21:17;99332.09;;;13.45;nan
75072;BME280;63651;55.728;38.022;2023-12-04T17:26:18;99338.25;;;13.40;nan
75072;BME280;63651;55.728;38.022;2023-12-04T17:31:19;99342.56;;;13.48;nan
75072;BME280;63651;55.728;38.022;2023-12-04T17:36:20;99349.06;;;13.47;nan
75072;BME280;63651;55.728;38.022;2023-12-04T17:41:21;99343.06;;;13.57;nan
75072;BME280;63651;55.728;38.022;2023-12-04T17:46:22;99344.47;;;13.48;nan
75072;BME280;63651;55.728;38.022;2023-12-04T17:51:23;99341.19;;;13.57;nan
75072;BME280;63651;55.728;38.022;2023-12-04T17:56:26;99347.88;;;13.43;nan
75072;BME280;63651;55.728;38.022;2023-12-04T18:01:27;99359.69;;;13.37;nan
75072;BME280;63651;55.728;38.022;2023-12-04T18:06:30;99367.56;;;13.45;nan
75072;BME280;63651;55.728;38.022;2023-12-04T18:11:32;99366.38;;;13.89;nan
75072;BME280;63651;55.728;38.022;2023-12-04T18:16:34;99371.38;;;13.44;nan
75072;BME280;63651;55.728;38.022;2023-12-04T18:21:35;99380.69;;;13.36;nan
75072;BME280;63651;55.728;38.022;2023-12-04T18:26:36;99392.06;;;13.33;nan
75072;BME280;63651;55.728;38.022;2023-12-04T18:31:41;99393.81;;;13.28;nan
75072;BME280;63651;55.728;38.022;2023-12-04T18:36:42;99395.25;;;13.30;nan
75072;BME280;63651;55.728;38.022;2023-12-04T18:41:46;99392.75;;;13.29;nan
75072;BME280;63651;55.728;38.022;2023-12-04T18:46:54;99366.50;;;13.09;nan
75072;BME280;63651;55.728;38.022;2023-12-04T18:51:57;99399.56;;;13.20;nan
75072;BME280;63651;55.728;38.022;2023-12-04T18:56:58;99399.94;;;13.23;nan
75072;BME280;63651;55.728;38.022;2023-12-04T19:02:00;99405.38;;;13.23;nan
75072;BME280;63651;55.728;38.022;2023-12-04T19:07:01;99395.38;;;13.17;nan
75072;BME280;63651;55.728;38.022;2023-12-04T19:12:03;99407.06;;;13.24;nan
75072;BME280;63651;55.728;38.022;2023-12-04T19:17:04;99412.06;;;13.27;nan
75072;BME280;63651;55.728;38.022;2023-12-04T19:22:07;99406.28;;;13.17;nan
75072;BME280;63651;55.728;38.022;2023-12-04T19:27:08;99419.34;;;13.33;nan
75072;BME280;63651;55.728;38.022;2023-12-04T19:32:09;99423.88;;;13.39;nan
75072;BME280;63651;55.728;38.022;2023-12-04T19:37:10;99417.81;;;13.37;nan
75072;BME280;63651;55.728;38.022;2023-12-04T19:42:11;99416.69;;;13.45;nan
75072;BME280;63651;55.728;38.022;2023-12-04T19:47:12;99427.59;;;13.45;nan
75072;BME280;63651;55.728;38.022;2023-12-04T19:52:13;99424.66;;;13.47;nan
75072;BME280;63651;55.728;38.022;2023-12-04T19:57:14;99426.16;;;13.42;nan
75072;BME280;63651;55.728;38.022;2023-12-04T20:02:15;99430.78;;;13.42;nan
75072;BME280;63651;55.728;38.022;2023-12-04T20:07:16;99413.06;;;13.33;nan
75072;BME280;63651;55.728;38.022;2023-12-04T20:12:18;99419.94;;;13.35;nan
75072;BME280;63651;55.728;38.022;2023-12-04T20:17:20;99434.81;;;13.39;nan
75072;BME280;63651;55.728;38.022;2023-12-04T20:22:21;99448.59;;;13.44;nan
75072;BME280;63651;55.728;38.022;2023-12-04T20:27:22;99443.97;;;13.45;nan
75072;BME280;63651;55.728;38.022;2023-12-04T20:32:23;99450.50;;;13.44;nan
75072;BME280;63651;55.728;38.022;2023-12-04T20:37:24;99452.63;;;13.42;nan
75072;BME280;63651;55.728;38.022;2023-12-04T20:42:27;99452.16;;;13.45;nan
75072;BME280;63651;55.728;38.022;2023-12-04T20:47:29;99455.13;;;13.43;nan
75072;BME280;63651;55.728;38.022;2023-12-04T20:52:30;99451.94;;;13.47;nan
75072;BME280;63651;55.728;38.022;2023-12-04T20:57:31;99459.44;;;13.51;nan
75072;BME280;63651;55.728;38.022;2023-12-04T21:02:32;99449.34;;;13.52;nan
75072;BME280;63651;55.728;38.022;2023-12-04T21:07:33;99457.78;;;13.50;nan
75072;BME280;63651;55.728;38.022;2023-12-04T21:12:35;99456.72;;;13.51;nan
75072;BME280;63651;55.728;38.022;2023-12-04T21:17:37;99457.16;;;13.48;nan
75072;BME280;63651;55.728;38.022;2023-12-04T21:22:39;99458.69;;;13.44;nan
75072;BME280;63651;55.728;38.022;2023-12-04T21:27:42;99473.38;;;13.43;nan
75072;BME280;63651;55.728;38.022;2023-12-04T21:32:44;99459.91;;;13.48;nan
75072;BME280;63651;55.728;38.022;2023-12-04T21:37:45;99458.69;;;13.44;nan
75072;BME280;63651;55.728;38.022;2023-12-04T21:42:46;99460.19;;;13.40;nan
75072;BME280;63651;55.728;38.022;2023-12-04T21:47:48;99466.72;;;13.39;nan
75072;BME280;63651;55.728;38.022;2023-12-04T21:52:49;99471.03;;;13.47;nan
75072;BME280;63651;55.728;38.022;2023-12-04T21:57:50;99451.16;;;13.21;nan
75072;BME280;63651;55.728;38.022;2023-12-04T22:02:51;99484.59;;;13.35;nan
75072;BME280;63651;55.728;38.022;2023-12-04T22:07:52;99489.97;;;13.41;nan
75072;BME280;63651;55.728;38.022;2023-12-04T22:12:53;99485.81;;;13.39;nan
75072;BME280;63651;55.728;38.022;2023-12-04T22:17:54;99477.00;;;13.37;nan
75072;BME280;63651;55.728;38.022;2023-12-04T22:22:55;99474.72;;;13.34;nan
75072;BME280;63651;55.728;38.022;2023-12-04T22:27:57;99474.72;;;13.34;nan
75072;BME280;63651;55.728;38.022;2023-12-04T22:32:58;99468.91;;;13.30;nan
75072;BME280;63651;55.728;38.022;2023-12-04T22:38:00;99477.09;;;13.30;nan
75072;BME280;63651;55.728;38.022;2023-12-04T22:43:01;99470.41;;;13.26;nan
75072;BME280;63651;55.728;38.022;2023-12-04T22:48:03;99477.59;;;13.21;nan
75072;BME280;63651;55.728;38.022;2023-12-04T22:53:04;99474.19;;;13.25;nan
75072;BME280;63651;55.728;38.022;2023-12-04T22:58:05;99469.78;;;13.24;nan
75072;BME280;63651;55.728;38.022;2023-12-04T23:03:06;99461.84;;;13.23;nan
75072;BME280;63651;55.728;38.022;2023-12-04T23:08:07;99467.53;;;13.21;nan
75072;BME280;63651;55.728;38.022;2023-12-04T23:13:08;99472.38;;;13.19;nan
75072;BME280;63651;55.728;38.022;2023-12-04T23:18:09;99474.41;;;13.24;nan
75072;BME280;63651;55.728;38.022;2023-12-04T23:23:10;99484.94;;;13.20;nan
75072;BME280;63651;55.728;38.022;2023-12-04T23:28:11;99474.06;;;13.13;nan
75072;BME280;63651;55.728;38.022;2023-12-04T23:33:12;99480.97;;;13.16;nan
75072;BME280;63651;55.728;38.022;2023-12-04T23:38:13;99488.94;;;13.18;nan
75072;BME280;63651;55.728;38.022;2023-12-04T23:43:15;99489.13;;;13.23;nan
75072;BME280;63651;55.728;38.022;2023-12-04T23:48:16;99490.78;;;13.24;nan
75072;BME280;63651;55.728;38.022;2023-12-04T23:53:17;99481.81;;;13.17;nan
75072;BME280;63651;55.728;38.022;2023-12-04T23:58:18;99478.28;;;13.09;nan
